createdAt,value
2019-02-06T00:02:33.736Z,96.27
2019-02-06T00:03:39.772Z,96.80
2019-02-06T00:04:45.435Z,96.95
2019-02-06T00:05:50.788Z,95.94
2019-02-06T00:06:56.810Z,94.78
2019-02-06T00:08:02.454Z,93.96
2019-02-06T00:09:07.506Z,94.37
2019-02-06T00:10:13.689Z,95.20
2019-02-06T00:11:19.352Z,95.46
2019-02-06T00:12:25.311Z,94.80
2019-02-06T00:13:31.321Z,95.08
2019-02-06T00:14:36.905Z,94.67
2019-02-06T00:15:42.361Z,93.86
2019-02-06T00:16:48.066Z,93.45
2019-02-06T00:17:53.481Z,94.14
2019-02-06T00:18:59.663Z,94.84
2019-02-06T00:20:04.955Z,94.97
2019-02-06T00:21:10.281Z,94.46
2019-02-06T00:22:16.319Z,94.12
2019-02-06T00:23:22.275Z,93.79
2019-02-06T00:24:28.231Z,94.31
2019-02-06T00:25:34.201Z,94.66
2019-02-06T00:26:40.222Z,95.38
2019-02-06T00:27:46.267Z,96.42
2019-02-06T00:28:51.915Z,96.87
2019-02-06T00:29:57.890Z,97.21
2019-02-06T00:31:03.001Z,97.59
2019-02-06T00:32:09.053Z,97.65
2019-02-06T00:33:15.040Z,97.60
2019-02-06T00:34:21.038Z,97.63
2019-02-06T00:35:26.994Z,97.39
2019-02-06T00:36:32.363Z,97.12
2019-02-06T00:37:38.318Z,96.72
2019-02-06T00:38:45.003Z,95.97
2019-02-06T00:39:51.542Z,96.70
2019-02-06T00:40:57.549Z,97.83
2019-02-06T00:42:03.215Z,98.22
2019-02-06T00:43:09.226Z,98.45
2019-02-06T00:44:15.205Z,98.78
2019-02-06T00:45:21.142Z,99.08
2019-02-06T00:46:27.171Z,99.25
2019-02-06T00:47:33.160Z,99.46
2019-02-06T00:48:39.132Z,98.81
2019-02-06T00:49:45.156Z,97.92
2019-02-06T00:50:51.192Z,98.00
2019-02-06T00:51:57.163Z,97.94
2019-02-06T00:53:02.806Z,97.48
2019-02-06T00:54:08.891Z,95.60
2019-02-06T00:55:14.236Z,94.10
2019-02-06T00:56:20.228Z,94.00
2019-02-06T00:57:26.235Z,93.74
2019-02-06T00:58:31.797Z,94.18
2019-02-06T00:59:37.767Z,95.64
2019-02-06T01:00:43.503Z,96.43
2019-02-06T01:01:49.481Z,96.90
2019-02-06T01:02:54.753Z,97.48
2019-02-06T01:04:00.391Z,98.02
2019-02-06T01:05:05.802Z,98.73
2019-02-06T01:06:11.516Z,98.73
2019-02-06T01:07:16.824Z,99.29
2019-02-06T01:08:22.420Z,98.80
2019-02-06T01:09:28.411Z,98.73
2019-02-06T01:10:34.586Z,98.49
2019-02-06T01:11:40.153Z,98.22
2019-02-06T01:12:45.431Z,97.81
2019-02-06T01:13:51.079Z,97.73
2019-02-06T01:14:57.062Z,98.11
2019-02-06T01:16:03.196Z,97.49
2019-02-06T01:17:08.770Z,97.49
2019-02-06T01:18:14.359Z,98.04
2019-02-06T01:19:19.630Z,97.48
2019-02-06T01:20:25.669Z,97.44
2019-02-06T01:21:32.115Z,97.97
2019-02-06T01:22:38.251Z,97.19
2019-02-06T01:23:44.211Z,97.53
2019-02-06T01:24:49.866Z,97.26
2019-02-06T01:25:55.539Z,97.31
2019-02-06T01:27:01.541Z,96.87
2019-02-06T01:28:07.157Z,96.62
2019-02-06T01:29:13.224Z,97.60
2019-02-06T01:30:19.105Z,98.24
2019-02-06T01:31:24.876Z,98.69
2019-02-06T01:32:30.907Z,99.37
2019-02-06T01:33:36.910Z,99.95
2019-02-06T01:34:42.863Z,100.00
2019-02-06T01:35:50.210Z,100.00
2019-02-06T01:36:54.599Z,100.00
2019-02-06T01:38:00.599Z,100.00
2019-02-06T01:39:05.684Z,100.00
2019-02-06T01:40:13.974Z,100.00
2019-02-06T01:41:19.971Z,100.00
2019-02-06T01:42:26.868Z,100.00
2019-02-06T01:43:33.009Z,100.00
2019-02-06T01:44:39.000Z,100.00
2019-02-06T01:45:44.398Z,100.00
2019-02-06T01:46:50.348Z,100.00
2019-02-06T01:47:56.371Z,100.00
2019-02-06T01:49:02.343Z,100.00
2019-02-06T01:50:07.425Z,100.00
2019-02-06T01:51:13.124Z,100.00
2019-02-06T01:52:19.216Z,100.00
2019-02-06T01:53:25.231Z,100.00
2019-02-06T01:54:31.276Z,100.00
2019-02-06T01:55:36.809Z,100.00
2019-02-06T01:56:42.973Z,100.00
2019-02-06T01:57:49.091Z,100.00
2019-02-06T01:58:55.251Z,100.00
2019-02-06T02:00:01.173Z,100.00
2019-02-06T02:01:06.453Z,100.00
2019-02-06T02:02:12.132Z,100.00
2019-02-06T02:03:18.937Z,100.00
2019-02-06T02:04:25.568Z,100.00
2019-02-06T02:05:31.563Z,100.00
2019-02-06T02:06:37.595Z,100.00
2019-02-06T02:07:43.016Z,100.00
2019-02-06T02:08:48.419Z,100.00
2019-02-06T02:09:54.392Z,100.00
2019-02-06T02:11:00.442Z,100.00
2019-02-06T02:12:05.779Z,100.00
2019-02-06T02:13:11.406Z,100.00
2019-02-06T02:14:17.441Z,100.00
2019-02-06T02:15:23.463Z,100.00
2019-02-06T02:16:29.477Z,100.00
2019-02-06T02:17:35.446Z,100.00
2019-02-06T02:18:41.450Z,100.00
2019-02-06T02:19:46.716Z,100.00
2019-02-06T02:20:52.343Z,100.00
2019-02-06T02:21:57.684Z,100.00
2019-02-06T02:23:03.558Z,100.00
2019-02-06T02:24:09.078Z,100.00
2019-02-06T02:25:14.384Z,100.00
2019-02-06T02:26:20.436Z,100.00
2019-02-06T02:27:26.146Z,100.00
2019-02-06T02:28:31.746Z,100.00
2019-02-06T02:29:37.714Z,100.00
2019-02-06T02:30:43.162Z,100.00
2019-02-06T02:31:48.649Z,100.00
2019-02-06T02:32:54.628Z,100.00
2019-02-06T02:34:00.634Z,100.00
2019-02-06T02:35:05.904Z,100.00
2019-02-06T02:36:16.095Z,100.00
2019-02-06T02:37:17.531Z,100.00
2019-02-06T02:38:23.552Z,100.00
2019-02-06T02:39:29.607Z,100.00
2019-02-06T02:40:35.650Z,100.00
2019-02-06T02:41:41.495Z,100.00
2019-02-06T02:42:47.573Z,100.00
2019-02-06T02:43:53.553Z,100.00
2019-02-06T02:44:59.568Z,100.00
2019-02-06T02:46:04.948Z,100.00
2019-02-06T02:47:11.078Z,100.00
2019-02-06T02:48:17.037Z,100.00
2019-02-06T02:49:23.080Z,100.00
2019-02-06T02:50:29.071Z,100.00
2019-02-06T02:51:35.045Z,100.00
2019-02-06T02:52:40.383Z,100.00
2019-02-06T02:53:46.377Z,100.00
2019-02-06T02:54:52.395Z,100.00
2019-02-06T02:55:58.418Z,100.00
2019-02-06T02:57:04.615Z,100.00
2019-02-06T02:58:09.898Z,100.00
2019-02-06T02:59:15.893Z,100.00
2019-02-06T03:00:26.600Z,100.00
2019-02-06T03:01:33.731Z,100.00
2019-02-06T03:02:39.491Z,100.00
2019-02-06T03:03:45.268Z,100.00
2019-02-06T03:04:51.693Z,100.00
2019-02-06T03:05:57.428Z,100.00
2019-02-06T03:07:03.488Z,100.00
2019-02-06T03:08:09.354Z,100.00
2019-02-06T03:09:15.047Z,100.00
2019-02-06T03:10:21.045Z,100.00
2019-02-06T03:11:27.080Z,100.00
2019-02-06T03:12:33.086Z,100.00
2019-02-06T03:13:39.084Z,100.00
2019-02-06T03:14:45.161Z,100.00
2019-02-06T03:15:51.104Z,100.00
2019-02-06T03:16:57.073Z,100.00
2019-02-06T03:18:02.712Z,100.00
2019-02-06T03:19:08.795Z,100.00
2019-02-06T03:20:14.085Z,100.00
2019-02-06T03:21:19.786Z,100.00
2019-02-06T03:22:25.789Z,100.00
2019-02-06T03:23:31.847Z,100.00
2019-02-06T03:24:37.504Z,100.00
2019-02-06T03:25:43.138Z,100.00
2019-02-06T03:26:49.124Z,100.00
2019-02-06T03:27:55.145Z,100.00
2019-02-06T03:29:01.226Z,100.00
2019-02-06T03:30:06.631Z,100.00
2019-02-06T03:31:12.691Z,100.00
2019-02-06T03:32:18.745Z,100.00
2019-02-06T03:33:24.714Z,100.00
2019-02-06T03:34:30.743Z,100.00
2019-02-06T03:35:36.770Z,100.00
2019-02-06T03:36:42.764Z,100.00
2019-02-06T03:37:48.765Z,100.00
2019-02-06T03:38:54.762Z,100.00
2019-02-06T03:40:00.773Z,100.00
2019-02-06T03:41:06.611Z,100.00
2019-02-06T03:42:12.654Z,100.00
2019-02-06T03:43:18.312Z,100.00
2019-02-06T03:44:23.949Z,100.00
2019-02-06T03:45:29.979Z,100.00
2019-02-06T03:46:36.015Z,100.00
2019-02-06T03:47:41.707Z,100.00
2019-02-06T03:48:47.303Z,100.00
2019-02-06T03:49:54.061Z,100.00
2019-02-06T03:51:00.567Z,100.00
2019-02-06T03:52:06.213Z,100.00
2019-02-06T03:53:11.948Z,100.00
2019-02-06T03:54:17.927Z,100.00
2019-02-06T03:55:24.039Z,100.00
2019-02-06T03:56:30.025Z,100.00
2019-02-06T03:57:36.034Z,100.00
2019-02-06T03:58:42.035Z,100.00
2019-02-06T03:59:48.060Z,100.00
2019-02-06T04:00:54.105Z,100.00
2019-02-06T04:02:00.094Z,100.00
2019-02-06T04:03:05.363Z,100.00
2019-02-06T04:04:11.349Z,100.00
2019-02-06T04:05:16.706Z,100.00
2019-02-06T04:06:22.726Z,100.00
2019-02-06T04:07:28.742Z,100.00
2019-02-06T04:08:34.696Z,100.00
2019-02-06T04:09:40.687Z,100.00
2019-02-06T04:10:47.637Z,100.00
2019-02-06T04:11:54.035Z,100.00
2019-02-06T04:13:00.029Z,100.00
2019-02-06T04:14:05.374Z,100.00
2019-02-06T04:15:10.708Z,100.00
2019-02-06T04:16:16.697Z,100.00
2019-02-06T04:17:22.648Z,100.00
2019-02-06T04:18:28.692Z,100.00
2019-02-06T04:19:34.354Z,100.00
2019-02-06T04:20:40.339Z,100.00
2019-02-06T04:21:46.307Z,100.00
2019-02-06T04:22:52.285Z,100.00
2019-02-06T04:23:58.291Z,100.00
2019-02-06T04:25:03.621Z,100.00
2019-02-06T04:26:09.765Z,100.00
2019-02-06T04:27:15.416Z,100.00
2019-02-06T04:28:21.367Z,100.00
2019-02-06T04:29:27.328Z,100.00
2019-02-06T04:30:33.351Z,100.00
2019-02-06T04:31:39.350Z,100.00
2019-02-06T04:32:45.050Z,100.00
2019-02-06T04:33:51.033Z,100.00
2019-02-06T04:34:57.038Z,100.00
2019-02-06T04:36:03.084Z,100.00
2019-02-06T04:37:09.104Z,100.00
2019-02-06T04:38:15.080Z,100.00
2019-02-06T04:39:21.020Z,100.00
2019-02-06T04:40:27.063Z,100.00
2019-02-06T04:41:32.728Z,100.00
2019-02-06T04:42:38.759Z,100.00
2019-02-06T04:43:44.867Z,100.00
2019-02-06T04:44:50.847Z,100.00
2019-02-06T04:45:56.873Z,100.00
2019-02-06T04:47:02.850Z,100.00
2019-02-06T04:48:08.542Z,100.00
2019-02-06T04:49:14.507Z,100.00
2019-02-06T04:50:20.496Z,100.00
2019-02-06T04:51:26.490Z,100.00
2019-02-06T04:52:32.499Z,100.00
2019-02-06T04:53:38.579Z,100.00
2019-02-06T04:54:44.642Z,100.00
2019-02-06T04:55:50.643Z,100.00
2019-02-06T04:56:56.648Z,100.00
2019-02-06T04:58:02.647Z,100.00
2019-02-06T04:59:08.611Z,100.00
2019-02-06T05:00:23.453Z,100.00
2019-02-06T05:01:29.082Z,100.00
2019-02-06T05:02:35.120Z,100.00
2019-02-06T05:03:41.136Z,100.00
2019-02-06T05:04:47.164Z,100.00
2019-02-06T05:05:53.252Z,100.00
2019-02-06T05:06:58.881Z,100.00
2019-02-06T05:08:05.136Z,100.00
2019-02-06T05:09:11.183Z,100.00
2019-02-06T05:10:16.896Z,100.00
2019-02-06T05:11:22.951Z,100.00
2019-02-06T05:12:29.010Z,100.00
2019-02-06T05:13:35.028Z,100.00
2019-02-06T05:14:41.715Z,100.00
2019-02-06T05:15:48.238Z,100.00
2019-02-06T05:16:54.190Z,100.00
2019-02-06T05:18:00.149Z,100.00
2019-02-06T05:19:06.240Z,100.00
2019-02-06T05:20:22.851Z,100.00
2019-02-06T05:21:28.836Z,100.00
2019-02-06T05:22:34.823Z,100.00
2019-02-06T05:23:40.847Z,100.00
2019-02-06T05:24:46.830Z,100.00
2019-02-06T05:25:52.828Z,100.00
2019-02-06T05:26:58.834Z,100.00
2019-02-06T05:28:04.147Z,100.00
2019-02-06T05:29:10.182Z,100.00
2019-02-06T05:30:15.843Z,100.00
2019-02-06T05:31:21.860Z,100.00
2019-02-06T05:32:27.814Z,100.00
2019-02-06T05:33:33.753Z,100.00
2019-02-06T05:34:39.786Z,100.00
2019-02-06T05:35:45.891Z,100.00
2019-02-06T05:36:51.859Z,100.00
2019-02-06T05:37:57.882Z,100.00
2019-02-06T05:39:03.342Z,100.00
2019-02-06T05:40:08.664Z,100.00
2019-02-06T05:41:14.665Z,100.00
2019-02-06T05:42:20.268Z,100.00
2019-02-06T05:43:26.604Z,100.00
2019-02-06T05:44:32.631Z,100.00
2019-02-06T05:45:38.604Z,100.00
2019-02-06T05:46:44.640Z,100.00
2019-02-06T05:47:51.039Z,100.00
2019-02-06T05:48:57.114Z,100.00
2019-02-06T05:50:03.085Z,100.00
2019-02-06T05:51:09.097Z,100.00
2019-02-06T05:52:15.150Z,100.00
2019-02-06T05:53:21.135Z,100.00
2019-02-06T05:54:27.136Z,100.00
2019-02-06T05:55:33.143Z,100.00
2019-02-06T05:56:39.212Z,100.00
2019-02-06T05:57:45.707Z,100.00
2019-02-06T05:58:51.915Z,100.00
2019-02-06T05:59:57.849Z,100.00
2019-02-06T06:01:03.476Z,100.00
2019-02-06T06:02:09.474Z,100.00
2019-02-06T06:03:15.471Z,100.00
2019-02-06T06:04:21.547Z,100.00
2019-02-06T06:05:27.182Z,100.00
2019-02-06T06:06:33.161Z,100.00
2019-02-06T06:07:45.133Z,100.00
2019-02-06T06:08:45.206Z,100.00
2019-02-06T06:09:51.215Z,100.00
2019-02-06T06:10:57.198Z,100.00
2019-02-06T06:12:03.177Z,100.00
2019-02-06T06:13:09.208Z,100.00
2019-02-06T06:14:15.213Z,100.00
2019-02-06T06:15:20.502Z,100.00
2019-02-06T06:16:26.502Z,100.00
2019-02-06T06:17:32.492Z,100.00
2019-02-06T06:18:38.510Z,100.00
2019-02-06T06:19:44.464Z,100.00
2019-02-06T06:20:50.478Z,100.00
2019-02-06T06:21:56.506Z,100.00
2019-02-06T06:23:02.449Z,100.00
2019-02-06T06:24:09.189Z,100.00
2019-02-06T06:25:13.053Z,100.00
2019-02-06T06:26:19.128Z,100.00
2019-02-06T06:27:25.069Z,100.00
2019-02-06T06:28:31.115Z,100.00
2019-02-06T06:29:36.887Z,100.00
2019-02-06T06:30:42.935Z,100.00
2019-02-06T06:31:48.926Z,100.00
2019-02-06T06:32:54.865Z,100.00
2019-02-06T06:34:00.856Z,100.00
2019-02-06T06:35:06.109Z,100.00
2019-02-06T06:36:12.099Z,100.00
2019-02-06T06:37:18.149Z,100.00
2019-02-06T06:38:24.229Z,100.00
2019-02-06T06:39:30.262Z,100.00
2019-02-06T06:40:35.900Z,100.00
2019-02-06T06:41:41.183Z,100.00
2019-02-06T06:42:46.830Z,100.00
2019-02-06T06:43:52.834Z,100.00
2019-02-06T06:44:58.941Z,100.00
2019-02-06T06:46:04.641Z,100.00
2019-02-06T06:47:10.677Z,100.00
2019-02-06T06:48:16.711Z,100.00
2019-02-06T06:49:22.884Z,100.00
2019-02-06T06:50:28.155Z,100.00
2019-02-06T06:51:34.120Z,100.00
2019-02-06T06:52:40.097Z,100.00
2019-02-06T06:53:46.082Z,100.00
2019-02-06T06:54:52.081Z,100.00
2019-02-06T06:55:58.154Z,100.00
2019-02-06T06:57:03.859Z,100.00
2019-02-06T06:58:10.242Z,100.00
2019-02-06T06:59:16.368Z,100.00
2019-02-06T07:00:24.127Z,100.00
2019-02-06T07:01:31.542Z,100.00
2019-02-06T07:02:37.681Z,100.00
2019-02-06T07:03:43.619Z,100.00
2019-02-06T07:04:49.606Z,100.00
2019-02-06T07:05:55.598Z,100.00
2019-02-06T07:07:01.236Z,100.00
2019-02-06T07:08:09.552Z,100.00
2019-02-06T07:09:12.936Z,100.00
2019-02-06T07:10:18.204Z,100.00
2019-02-06T07:11:24.139Z,100.00
2019-02-06T07:12:30.179Z,100.00
2019-02-06T07:13:37.179Z,100.00
2019-02-06T07:14:42.312Z,100.00
2019-02-06T07:15:48.314Z,100.00
2019-02-06T07:16:54.363Z,100.00
2019-02-06T07:17:59.656Z,100.00
2019-02-06T07:19:05.630Z,100.00
2019-02-06T07:20:10.976Z,100.00
2019-02-06T07:21:16.936Z,100.00
2019-02-06T07:22:23.619Z,100.00
2019-02-06T07:23:29.722Z,100.00
2019-02-06T07:24:35.756Z,100.00
2019-02-06T07:25:41.762Z,100.00
2019-02-06T07:26:47.706Z,100.00
2019-02-06T07:27:53.363Z,100.00
2019-02-06T07:28:59.377Z,100.00
2019-02-06T07:30:05.541Z,100.00
2019-02-06T07:31:11.174Z,100.00
2019-02-06T07:32:17.162Z,100.00
2019-02-06T07:33:23.140Z,100.00
2019-02-06T07:34:29.077Z,100.00
2019-02-06T07:35:35.054Z,100.00
2019-02-06T07:36:40.991Z,100.00
2019-02-06T07:37:46.708Z,100.00
2019-02-06T07:38:52.747Z,100.00
2019-02-06T07:39:58.728Z,100.00
2019-02-06T07:41:04.063Z,100.00
2019-02-06T07:42:09.706Z,100.00
2019-02-06T07:43:16.406Z,100.00
2019-02-06T07:44:22.941Z,100.00
2019-02-06T07:45:28.271Z,100.00
2019-02-06T07:46:34.261Z,100.00
2019-02-06T07:47:39.956Z,100.00
2019-02-06T07:48:45.956Z,100.00
2019-02-06T07:49:51.944Z,100.00
2019-02-06T07:50:57.956Z,100.00
2019-02-06T07:52:04.185Z,100.00
2019-02-06T07:53:09.828Z,100.00
2019-02-06T07:54:15.458Z,100.00
2019-02-06T07:55:20.742Z,100.00
2019-02-06T07:56:26.669Z,100.00
2019-02-06T07:57:32.688Z,100.00
2019-02-06T07:58:38.982Z,100.00
2019-02-06T07:59:44.968Z,100.00
2019-02-06T08:00:50.980Z,100.00
2019-02-06T08:01:56.967Z,100.00
2019-02-06T08:03:02.826Z,100.00
2019-02-06T08:04:09.539Z,100.00
2019-02-06T08:05:16.745Z,100.00
2019-02-06T08:06:22.766Z,100.00
2019-02-06T08:07:28.842Z,100.00
2019-02-06T08:08:36.393Z,100.00
2019-02-06T08:09:40.187Z,100.00
2019-02-06T08:10:46.162Z,100.00
2019-02-06T08:11:52.164Z,100.00
2019-02-06T08:12:57.922Z,100.00
2019-02-06T08:14:03.640Z,100.00
2019-02-06T08:15:09.253Z,100.00
2019-02-06T08:16:14.884Z,100.00
2019-02-06T08:17:20.843Z,100.00
2019-02-06T08:18:26.847Z,100.00
2019-02-06T08:19:32.841Z,100.00
2019-02-06T08:20:38.966Z,100.00
2019-02-06T08:21:44.857Z,100.00
2019-02-06T08:22:51.198Z,100.00
2019-02-06T08:23:57.354Z,100.00
2019-02-06T08:25:03.765Z,100.00
2019-02-06T08:26:10.095Z,100.00
2019-02-06T08:27:16.157Z,100.00
2019-02-06T08:28:22.207Z,100.00
2019-02-06T08:29:28.223Z,100.00
2019-02-06T08:30:33.476Z,100.00
2019-02-06T08:31:40.453Z,100.00
2019-02-06T08:32:46.140Z,100.00
2019-02-06T08:33:52.234Z,100.00
2019-02-06T08:34:58.170Z,100.00
2019-02-06T08:36:03.491Z,100.00
2019-02-06T08:37:09.425Z,100.00
2019-02-06T08:38:15.394Z,100.00
2019-02-06T08:39:21.384Z,100.00
2019-02-06T08:40:26.691Z,100.00
2019-02-06T08:41:32.684Z,100.00
2019-02-06T08:42:38.663Z,100.00
2019-02-06T08:43:44.695Z,100.00
2019-02-06T08:44:50.639Z,100.00
2019-02-06T08:45:56.591Z,100.00
2019-02-06T08:47:02.602Z,100.00
2019-02-06T08:48:08.294Z,100.00
2019-02-06T08:49:14.260Z,100.00
2019-02-06T08:50:20.383Z,100.00
2019-02-06T08:51:26.010Z,100.00
2019-02-06T08:52:32.025Z,100.00
2019-02-06T08:53:38.030Z,100.00
2019-02-06T08:54:44.845Z,100.00
2019-02-06T08:55:50.487Z,100.00
2019-02-06T08:56:56.153Z,99.45
2019-02-06T08:58:01.473Z,99.30
2019-02-06T08:59:06.832Z,99.33
2019-02-06T09:00:15.866Z,99.07
2019-02-06T09:01:21.879Z,98.56
2019-02-06T09:02:27.502Z,98.14
2019-02-06T09:03:33.523Z,97.26
2019-02-06T09:04:39.127Z,97.19
2019-02-06T09:05:45.102Z,97.49
2019-02-06T09:06:51.101Z,96.83
2019-02-06T09:07:57.674Z,96.71
2019-02-06T09:09:03.095Z,96.21
2019-02-06T09:10:17.168Z,96.50
2019-02-06T09:11:23.174Z,96.46
2019-02-06T09:12:29.153Z,95.96
2019-02-06T09:13:34.964Z,95.75
2019-02-06T09:14:40.965Z,95.68
2019-02-06T09:15:46.993Z,95.33
2019-02-06T09:16:52.259Z,95.98
2019-02-06T09:17:57.905Z,96.26
2019-02-06T09:19:03.833Z,95.62
2019-02-06T09:20:10.622Z,95.07
2019-02-06T09:21:16.649Z,94.31
2019-02-06T09:22:22.672Z,94.11
2019-02-06T09:23:28.309Z,94.17
2019-02-06T09:24:34.303Z,94.21
2019-02-06T09:25:39.944Z,94.27
2019-02-06T09:26:45.574Z,93.13
2019-02-06T09:27:50.822Z,91.36
2019-02-06T09:28:57.604Z,90.99
2019-02-06T09:30:03.471Z,90.83
2019-02-06T09:31:09.040Z,90.62
2019-02-06T09:32:15.061Z,92.09
2019-02-06T09:33:21.081Z,92.88
2019-02-06T09:34:27.196Z,91.95
2019-02-06T09:35:32.832Z,90.23
2019-02-06T09:36:38.845Z,89.97
2019-02-06T09:37:44.063Z,89.81
2019-02-06T09:38:50.061Z,90.03
2019-02-06T09:39:56.104Z,89.91
2019-02-06T09:41:02.068Z,89.51
2019-02-06T09:42:08.028Z,89.94
2019-02-06T09:43:13.991Z,89.94
2019-02-06T09:44:20.015Z,89.30
2019-02-06T09:45:25.740Z,87.98
2019-02-06T09:46:31.692Z,88.83
2019-02-06T09:47:37.311Z,87.96
2019-02-06T09:48:43.314Z,87.16
2019-02-06T09:49:49.915Z,87.71
2019-02-06T09:50:55.282Z,87.52
2019-02-06T09:52:01.243Z,87.61
2019-02-06T09:53:07.274Z,87.20
2019-02-06T09:54:13.297Z,87.60
2019-02-06T09:55:18.951Z,87.91
2019-02-06T09:56:24.960Z,88.33
2019-02-06T09:57:30.975Z,87.78
2019-02-06T09:58:36.915Z,87.51
2019-02-06T09:59:42.911Z,86.45
2019-02-06T10:00:48.562Z,85.92
2019-02-06T10:01:54.574Z,85.25
2019-02-06T10:03:00.539Z,85.02
2019-02-06T10:04:06.633Z,85.79
2019-02-06T10:05:11.954Z,85.89
2019-02-06T10:06:17.606Z,85.12
2019-02-06T10:07:23.613Z,83.79
2019-02-06T10:08:29.206Z,83.65
2019-02-06T10:09:35.228Z,82.83
2019-02-06T10:10:40.858Z,83.16
2019-02-06T10:11:47.461Z,83.61
2019-02-06T10:12:53.194Z,82.67
2019-02-06T10:13:59.312Z,83.03
2019-02-06T10:15:04.731Z,83.06
2019-02-06T10:16:10.762Z,82.99
2019-02-06T10:17:16.821Z,82.54
2019-02-06T10:18:22.795Z,82.33
2019-02-06T10:19:28.761Z,81.86
2019-02-06T10:20:34.048Z,81.80
2019-02-06T10:21:40.013Z,82.89
2019-02-06T10:22:45.706Z,81.99
2019-02-06T10:23:51.348Z,81.87
2019-02-06T10:24:57.354Z,82.51
2019-02-06T10:26:02.966Z,81.66
2019-02-06T10:27:08.571Z,81.34
2019-02-06T10:28:14.547Z,81.00
2019-02-06T10:29:20.556Z,81.29
2019-02-06T10:30:25.891Z,80.76
2019-02-06T10:31:32.970Z,79.64
2019-02-06T10:32:38.501Z,79.97
2019-02-06T10:33:44.468Z,80.31
2019-02-06T10:34:50.511Z,80.41
2019-02-06T10:35:56.470Z,80.46
2019-02-06T10:37:02.404Z,81.33
2019-02-06T10:38:07.681Z,81.00
2019-02-06T10:39:13.301Z,79.34
2019-02-06T10:40:18.667Z,79.43
2019-02-06T10:41:24.279Z,80.47
2019-02-06T10:42:30.234Z,80.64
2019-02-06T10:43:36.226Z,80.44
2019-02-06T10:44:42.399Z,81.03
2019-02-06T10:45:48.424Z,81.53
2019-02-06T10:46:53.650Z,80.02
2019-02-06T10:47:59.236Z,79.56
2019-02-06T10:49:04.300Z,78.81
2019-02-06T10:50:09.629Z,78.77
2019-02-06T10:51:15.261Z,79.65
2019-02-06T10:52:20.872Z,78.59
2019-02-06T10:53:26.857Z,79.08
2019-02-06T10:54:33.553Z,79.17
2019-02-06T10:55:40.011Z,79.03
2019-02-06T10:56:46.068Z,79.13
2019-02-06T10:57:52.003Z,78.16
2019-02-06T10:58:57.717Z,77.90
2019-02-06T11:00:03.234Z,77.18
2019-02-06T11:01:09.246Z,77.27
2019-02-06T11:02:14.887Z,77.60
2019-02-06T11:03:20.904Z,77.41
2019-02-06T11:04:26.898Z,78.36
2019-02-06T11:05:32.217Z,77.29
2019-02-06T11:06:37.801Z,76.93
2019-02-06T11:07:46.118Z,77.42
2019-02-06T11:08:49.029Z,77.33
2019-02-06T11:09:54.767Z,76.77
2019-02-06T11:11:00.741Z,77.52
2019-02-06T11:12:06.787Z,76.97
2019-02-06T11:13:12.380Z,77.42
2019-02-06T11:14:18.140Z,77.86
2019-02-06T11:15:23.971Z,76.66
2019-02-06T11:16:30.390Z,76.18
2019-02-06T11:17:36.047Z,76.98
2019-02-06T11:18:44.429Z,77.40
2019-02-06T11:19:48.048Z,77.03
2019-02-06T11:20:53.999Z,75.87
2019-02-06T11:22:00.004Z,75.87
2019-02-06T11:23:05.240Z,76.03
2019-02-06T11:24:11.235Z,75.70
2019-02-06T11:25:16.682Z,75.72
2019-02-06T11:26:22.661Z,75.06
2019-02-06T11:27:28.675Z,74.91
2019-02-06T11:28:34.864Z,75.89
2019-02-06T11:29:40.859Z,75.36
2019-02-06T11:30:46.823Z,76.31
2019-02-06T11:31:52.750Z,75.30
2019-02-06T11:32:58.354Z,75.12
2019-02-06T11:34:03.992Z,75.20
2019-02-06T11:35:09.323Z,74.27
2019-02-06T11:36:23.790Z,73.91
2019-02-06T11:37:22.348Z,74.07
2019-02-06T11:38:28.338Z,73.86
2019-02-06T11:39:34.342Z,73.40
2019-02-06T11:40:39.979Z,73.56
2019-02-06T11:41:45.615Z,74.02
2019-02-06T11:42:50.881Z,73.64
2019-02-06T11:43:56.871Z,73.01
2019-02-06T11:45:02.447Z,72.14
2019-02-06T11:46:09.141Z,71.70
2019-02-06T11:47:14.053Z,72.24
2019-02-06T11:48:19.652Z,71.21
2019-02-06T11:49:25.085Z,70.69
2019-02-06T11:50:30.144Z,70.81
2019-02-06T11:51:35.369Z,71.63
2019-02-06T11:52:41.346Z,71.98
2019-02-06T11:53:47.264Z,70.56
2019-02-06T11:54:53.219Z,70.33
2019-02-06T11:55:58.854Z,70.52
2019-02-06T11:57:05.049Z,70.82
2019-02-06T11:58:10.796Z,71.75
2019-02-06T11:59:16.783Z,71.85
2019-02-06T12:00:22.380Z,71.50
2019-02-06T12:01:28.077Z,71.56
2019-02-06T12:02:37.399Z,71.51
2019-02-06T12:03:39.723Z,70.96
2019-02-06T12:04:45.768Z,71.59
2019-02-06T12:05:51.057Z,69.73
2019-02-06T12:06:56.978Z,68.65
2019-02-06T12:08:02.600Z,68.61
2019-02-06T12:09:07.929Z,69.20
2019-02-06T12:10:14.681Z,69.37
2019-02-06T12:11:20.721Z,68.28
2019-02-06T12:12:26.684Z,68.13
2019-02-06T12:13:32.650Z,68.93
2019-02-06T12:14:38.662Z,69.85
2019-02-06T12:15:43.954Z,69.06
2019-02-06T12:16:49.975Z,69.50
2019-02-06T12:17:55.633Z,69.04
2019-02-06T12:19:01.705Z,69.55
2019-02-06T12:20:08.696Z,68.81
2019-02-06T12:21:17.807Z,68.28
2019-02-06T12:22:20.770Z,68.49
2019-02-06T12:23:32.263Z,69.17
2019-02-06T12:24:32.635Z,69.87
2019-02-06T12:25:38.298Z,69.49
2019-02-06T12:26:44.011Z,68.89
2019-02-06T12:27:50.079Z,69.77
2019-02-06T12:28:56.074Z,69.26
2019-02-06T12:30:01.340Z,69.00
2019-02-06T12:31:07.008Z,68.67
2019-02-06T12:32:12.908Z,68.05
2019-02-06T12:33:18.474Z,68.16
2019-02-06T12:34:24.429Z,68.24
2019-02-06T12:35:29.701Z,68.87
2019-02-06T12:36:35.364Z,68.97
2019-02-06T12:37:41.303Z,69.54
2019-02-06T12:38:53.436Z,69.77
2019-02-06T12:39:53.023Z,70.18
2019-02-06T12:40:58.938Z,69.98
2019-02-06T12:42:04.244Z,70.01
2019-02-06T12:43:10.683Z,69.25
2019-02-06T12:44:16.248Z,68.31
2019-02-06T12:45:21.541Z,69.03
2019-02-06T12:46:27.554Z,68.06
2019-02-06T12:47:33.155Z,66.99
2019-02-06T12:48:39.096Z,67.57
2019-02-06T12:49:45.103Z,67.52
2019-02-06T12:50:50.694Z,67.80
2019-02-06T12:51:56.665Z,66.53
2019-02-06T12:53:02.660Z,66.60
2019-02-06T12:54:08.312Z,67.05
2019-02-06T12:56:52.546Z,68.82
2019-02-06T12:57:58.194Z,69.26
2019-02-06T12:59:04.146Z,69.08
2019-02-06T13:00:11.130Z,70.04
2019-02-06T13:01:17.119Z,67.99
2019-02-06T13:02:23.069Z,66.86
2019-02-06T13:03:29.059Z,65.96
2019-02-06T13:04:35.104Z,65.55
2019-02-06T13:05:40.382Z,65.39
2019-02-06T13:06:50.174Z,65.01
2019-02-06T13:07:55.460Z,64.79
2019-02-06T13:09:01.380Z,65.42
2019-02-06T13:10:06.753Z,65.08
2019-02-06T13:11:12.789Z,65.03
2019-02-06T13:12:18.440Z,64.77
2019-02-06T13:13:24.399Z,65.77
2019-02-06T13:14:30.372Z,64.11
2019-02-06T13:15:36.007Z,64.19
2019-02-06T13:16:42.041Z,65.95
2019-02-06T13:17:47.438Z,65.24
2019-02-06T13:18:53.392Z,64.38
2019-02-06T13:19:59.427Z,63.89
2019-02-06T13:21:04.695Z,62.86
2019-02-06T13:22:10.705Z,63.20
2019-02-06T13:23:16.725Z,63.33
2019-02-06T13:24:22.706Z,64.21
2019-02-06T13:25:28.697Z,62.89
2019-02-06T13:26:34.755Z,62.37
2019-02-06T13:27:40.725Z,63.83
2019-02-06T13:28:46.685Z,63.60
2019-02-06T13:29:52.705Z,63.19
2019-02-06T13:30:58.395Z,62.89
2019-02-06T13:32:03.781Z,63.63
2019-02-06T13:33:11.624Z,63.63
2019-02-06T13:34:15.122Z,61.87
2019-02-06T13:35:21.114Z,62.95
2019-02-06T13:36:27.187Z,61.32
2019-02-06T13:37:33.170Z,61.22
2019-02-06T13:38:39.146Z,61.02
2019-02-06T13:39:45.223Z,60.60
2019-02-06T13:40:51.179Z,61.33
2019-02-06T13:41:57.199Z,63.21
2019-02-06T13:43:03.965Z,63.48
2019-02-06T13:44:10.036Z,63.48
2019-02-06T13:45:15.344Z,64.41
2019-02-06T13:46:21.358Z,62.87
2019-02-06T13:47:27.345Z,63.42
2019-02-06T13:48:33.878Z,63.13
2019-02-06T13:49:39.456Z,63.93
2019-02-06T13:50:44.776Z,63.46
2019-02-06T13:51:50.352Z,63.62
2019-02-06T13:52:55.715Z,62.90
2019-02-06T13:54:01.648Z,63.35
2019-02-06T13:55:07.976Z,62.74
2019-02-06T13:56:14.671Z,63.54
2019-02-06T13:57:20.626Z,63.69
2019-02-06T13:58:25.928Z,63.58